createdAt,value
2018-11-22T00:00:02.963Z,4.51
2018-11-22T00:01:02.745Z,4.51
2018-11-22T00:02:02.733Z,4.52
2018-11-22T00:03:02.724Z,4.51
2018-11-22T00:04:02.712Z,4.58
2018-11-22T00:05:02.761Z,4.52
2018-11-22T00:06:02.689Z,4.54
2018-11-22T00:07:02.679Z,4.54
2018-11-22T00:08:02.670Z,4.60
2018-11-22T00:09:02.661Z,4.59
2018-11-22T00:10:02.710Z,4.58
2018-11-22T00:11:02.641Z,4.54
2018-11-22T00:12:02.628Z,4.55
2018-11-22T00:13:02.614Z,4.58
2018-11-22T00:14:02.611Z,4.51
2018-11-22T00:15:02.657Z,4.62
2018-11-22T00:16:02.583Z,4.54
2018-11-22T00:17:02.574Z,4.62
2018-11-22T00:18:02.567Z,4.55
2018-11-22T00:19:02.552Z,4.60
2018-11-22T00:20:02.602Z,4.62
2018-11-22T00:21:03.392Z,4.60
2018-11-22T00:22:02.523Z,4.59
2018-11-22T00:23:02.509Z,4.58
2018-11-22T00:24:02.500Z,4.62
2018-11-22T00:25:02.553Z,4.63
2018-11-22T00:26:02.477Z,4.62
2018-11-22T00:27:02.470Z,4.58
2018-11-22T00:28:02.456Z,4.62
2018-11-22T00:29:02.444Z,4.63
2018-11-22T00:30:02.504Z,4.62
2018-11-22T00:31:02.424Z,4.65
2018-11-22T00:32:02.416Z,4.58
2018-11-22T00:33:02.402Z,4.55
2018-11-22T00:34:02.396Z,4.69
2018-11-22T00:35:02.451Z,4.65
2018-11-22T00:36:02.370Z,4.55
2018-11-22T00:37:02.360Z,4.60
2018-11-22T00:38:02.349Z,4.51
2018-11-22T00:39:02.340Z,4.54
2018-11-22T00:40:02.331Z,4.58
2018-11-22T00:41:02.392Z,4.58
2018-11-22T00:42:02.887Z,4.62
2018-11-22T00:43:02.295Z,4.59
2018-11-22T00:44:02.283Z,4.66
2018-11-22T00:45:02.274Z,4.66
2018-11-22T00:46:02.326Z,4.55
2018-11-22T00:47:02.258Z,4.70
2018-11-22T00:48:02.244Z,4.62
2018-11-22T00:49:02.232Z,4.65
2018-11-22T00:50:02.221Z,4.65
2018-11-22T00:51:02.272Z,4.67
2018-11-22T00:52:02.205Z,4.65
2018-11-22T00:53:02.190Z,4.67
2018-11-22T00:54:02.179Z,4.63
2018-11-22T00:55:02.170Z,4.66
2018-11-22T00:56:02.220Z,4.72
2018-11-22T00:57:02.146Z,4.67
2018-11-22T00:58:02.136Z,4.67
2018-11-22T00:59:02.125Z,4.60
2018-11-22T01:00:02.114Z,4.67
2018-11-22T01:01:02.166Z,4.67
2018-11-22T01:02:02.095Z,4.66
2018-11-22T01:03:02.886Z,4.72
2018-11-22T01:04:02.075Z,4.63
2018-11-22T01:05:02.066Z,4.65
2018-11-22T01:06:02.114Z,4.67
2018-11-22T01:07:02.044Z,4.63
2018-11-22T01:08:02.035Z,4.65
2018-11-22T01:09:02.021Z,4.67
2018-11-22T01:10:02.009Z,4.67
2018-11-22T01:11:02.069Z,4.67
2018-11-22T01:12:01.991Z,4.66
2018-11-22T01:13:01.977Z,4.72
2018-11-22T01:14:01.969Z,4.67
2018-11-22T01:15:01.964Z,4.63
2018-11-22T01:16:02.450Z,4.66
2018-11-22T01:17:01.936Z,4.66
2018-11-22T01:18:01.926Z,4.67
2018-11-22T01:19:01.914Z,4.67
2018-11-22T01:20:01.902Z,4.66
2018-11-22T01:21:01.966Z,4.66
2018-11-22T01:22:01.894Z,4.66
2018-11-22T01:23:01.872Z,4.70
2018-11-22T01:24:02.379Z,4.69
2018-11-22T01:25:01.848Z,4.69
2018-11-22T01:26:01.909Z,4.66
2018-11-22T01:27:01.830Z,4.67
2018-11-22T01:28:01.816Z,4.67
2018-11-22T01:29:01.807Z,4.70
2018-11-22T01:30:01.795Z,4.70
2018-11-22T01:31:01.844Z,4.70
2018-11-22T01:32:01.774Z,4.70
2018-11-22T01:33:01.767Z,4.66
2018-11-22T01:34:01.753Z,4.72
2018-11-22T01:35:01.746Z,4.66
2018-11-22T01:36:01.793Z,4.69
2018-11-22T01:37:01.721Z,4.65
2018-11-22T01:38:01.709Z,4.67
2018-11-22T01:39:01.702Z,4.67
2018-11-22T01:40:01.693Z,4.70
2018-11-22T01:41:01.743Z,4.67
2018-11-22T01:42:01.675Z,4.72
2018-11-22T01:43:01.659Z,4.69
2018-11-22T01:44:01.646Z,4.67
2018-11-22T01:45:02.373Z,4.63
2018-11-22T01:46:01.689Z,4.72
2018-11-22T01:47:01.617Z,4.70
2018-11-22T01:48:01.604Z,4.67
2018-11-22T01:49:01.592Z,4.67
2018-11-22T01:50:01.586Z,4.70
2018-11-22T01:51:01.633Z,4.77
2018-11-22T01:52:01.562Z,4.69
2018-11-22T01:53:01.552Z,4.78
2018-11-22T01:54:01.544Z,4.70
2018-11-22T01:55:01.530Z,4.66
2018-11-22T01:56:01.596Z,4.75
2018-11-22T01:57:01.508Z,4.75
2018-11-22T01:58:01.499Z,4.72
2018-11-22T01:59:01.485Z,4.67
2018-11-22T02:00:01.478Z,4.75
2018-11-22T02:01:01.464Z,4.73
2018-11-22T02:02:01.516Z,4.75
2018-11-22T02:03:01.442Z,4.69
2018-11-22T02:04:01.435Z,4.73
2018-11-22T02:05:01.423Z,4.66
2018-11-22T02:06:02.369Z,4.69
2018-11-22T02:07:01.463Z,4.75
2018-11-22T02:08:01.390Z,4.72
2018-11-22T02:09:01.381Z,4.72
2018-11-22T02:10:01.369Z,4.78
2018-11-22T02:11:01.360Z,4.70
2018-11-22T02:12:01.415Z,4.75
2018-11-22T02:13:01.338Z,4.73
2018-11-22T02:14:01.327Z,4.73
2018-11-22T02:15:01.316Z,4.78
2018-11-22T02:16:01.303Z,4.72
2018-11-22T02:17:01.356Z,4.82
2018-11-22T02:18:01.289Z,4.69
2018-11-22T02:19:01.274Z,4.72
2018-11-22T02:20:01.261Z,4.78
2018-11-22T02:21:01.257Z,4.72
2018-11-22T02:22:01.302Z,4.78
2018-11-22T02:23:01.228Z,4.75
2018-11-22T02:24:01.221Z,4.72
2018-11-22T02:25:01.208Z,4.72
2018-11-22T02:26:01.204Z,4.70
2018-11-22T02:27:01.456Z,4.73
2018-11-22T02:28:01.178Z,4.77
2018-11-22T02:29:01.166Z,4.67
2018-11-22T02:30:01.155Z,4.70
2018-11-22T02:31:01.150Z,4.77
2018-11-22T02:32:01.196Z,4.75
2018-11-22T02:33:01.122Z,4.66
2018-11-22T02:34:01.113Z,4.67
2018-11-22T02:35:01.101Z,4.69
2018-11-22T02:36:01.099Z,4.69
2018-11-22T02:37:01.146Z,4.66
2018-11-22T02:38:01.072Z,4.66
2018-11-22T02:39:01.060Z,4.69
2018-11-22T02:40:01.047Z,4.70
2018-11-22T02:41:01.057Z,4.66
2018-11-22T02:42:01.088Z,4.67
2018-11-22T02:43:01.017Z,4.67
2018-11-22T02:44:01.005Z,4.67
2018-11-22T02:45:01.001Z,4.69
2018-11-22T02:46:00.985Z,4.66
2018-11-22T02:47:01.036Z,4.70
2018-11-22T02:48:01.865Z,4.62
2018-11-22T02:49:00.957Z,4.66
2018-11-22T02:50:00.943Z,4.59
2018-11-22T02:51:00.934Z,4.60
2018-11-22T02:52:00.983Z,4.62
2018-11-22T02:53:00.914Z,4.69
2018-11-22T02:54:00.900Z,4.67
2018-11-22T02:55:00.894Z,4.66
2018-11-22T02:56:00.880Z,4.65
2018-11-22T02:57:00.932Z,4.63
2018-11-22T02:58:00.859Z,4.67
2018-11-22T02:59:00.849Z,4.52
2018-11-22T03:00:00.835Z,4.55
2018-11-22T03:01:00.826Z,4.55
2018-11-22T03:02:00.881Z,4.51
2018-11-22T03:03:00.803Z,4.62
2018-11-22T03:04:00.794Z,4.50
2018-11-22T03:05:00.782Z,4.62
2018-11-22T03:06:00.773Z,4.52
2018-11-22T03:07:00.824Z,4.60
2018-11-22T03:08:00.754Z,4.51
2018-11-22T03:09:01.361Z,4.48
2018-11-22T03:10:00.731Z,4.58
2018-11-22T03:11:00.722Z,4.47
2018-11-22T03:12:00.769Z,4.55
2018-11-22T03:13:00.699Z,4.54
2018-11-22T03:14:00.692Z,4.52
2018-11-22T03:15:00.683Z,4.52
2018-11-22T03:16:00.668Z,4.52
2018-11-22T03:17:00.930Z,4.47
2018-11-22T03:18:00.645Z,4.58
2018-11-22T03:19:00.636Z,4.52
2018-11-22T03:20:00.626Z,4.58
2018-11-22T03:21:00.613Z,4.45
2018-11-22T03:22:00.661Z,4.45
2018-11-22T03:23:00.592Z,4.45
2018-11-22T03:24:00.579Z,4.52
2018-11-22T03:25:00.570Z,4.48
2018-11-22T03:26:00.558Z,4.45
2018-11-22T03:27:00.609Z,4.37
2018-11-22T03:28:00.540Z,4.48
2018-11-22T03:29:00.528Z,4.42
2018-11-22T03:30:01.360Z,4.40
2018-11-22T03:31:00.505Z,4.42
2018-11-22T03:32:00.562Z,4.48
2018-11-22T03:33:00.484Z,4.41
2018-11-22T03:34:00.473Z,4.41
2018-11-22T03:35:00.463Z,4.45
2018-11-22T03:36:00.451Z,4.45
2018-11-22T03:37:00.443Z,4.41
2018-11-22T03:38:00.492Z,4.42
2018-11-22T03:39:00.424Z,4.48
2018-11-22T03:40:00.409Z,4.45
2018-11-22T03:41:00.400Z,4.44
2018-11-22T03:42:00.386Z,4.44
2018-11-22T03:43:00.446Z,4.41
2018-11-22T03:44:00.369Z,4.45
2018-11-22T03:45:00.368Z,4.44
2018-11-22T03:46:00.352Z,4.45
2018-11-22T03:47:00.335Z,4.42
2018-11-22T03:48:00.387Z,4.41
2018-11-22T03:49:00.319Z,4.45
2018-11-22T03:50:00.308Z,4.50
2018-11-22T03:51:00.852Z,4.40
2018-11-22T03:52:00.281Z,4.47
2018-11-22T03:53:00.341Z,4.40
2018-11-22T03:54:00.260Z,4.37
2018-11-22T03:55:00.248Z,4.45
2018-11-22T03:56:00.243Z,4.37
2018-11-22T03:57:00.235Z,4.41
2018-11-22T03:58:00.280Z,4.42
2018-11-22T03:59:00.210Z,4.32
2018-11-22T04:00:00.208Z,4.36
2018-11-22T04:01:00.205Z,4.40
2018-11-22T04:02:00.177Z,4.30
2018-11-22T04:03:00.226Z,4.32
2018-11-22T04:04:00.162Z,4.37
2018-11-22T04:05:00.145Z,4.29
2018-11-22T04:06:00.134Z,4.32
2018-11-22T04:07:00.126Z,4.32
2018-11-22T04:08:00.178Z,4.30
2018-11-22T04:09:00.103Z,4.26
2018-11-22T04:10:00.097Z,4.29
2018-11-22T04:11:00.083Z,4.27
2018-11-22T04:12:00.852Z,4.33
2018-11-22T04:13:00.122Z,4.32
2018-11-22T04:14:00.051Z,4.42
2018-11-22T04:15:00.043Z,4.32
2018-11-22T04:16:00.033Z,4.36
2018-11-22T04:17:00.032Z,4.26
2018-11-22T04:18:00.073Z,4.32
2018-11-22T04:18:59.995Z,4.29
2018-11-22T04:19:59.986Z,4.36
2018-11-22T04:20:59.975Z,4.34
2018-11-22T04:21:59.968Z,4.29
2018-11-22T04:23:00.018Z,4.30
2018-11-22T04:23:59.942Z,4.32
2018-11-22T04:24:59.931Z,4.26
2018-11-22T04:25:59.923Z,4.27
2018-11-22T04:27:01.072Z,4.23
2018-11-22T04:27:59.966Z,4.23
2018-11-22T04:28:59.891Z,4.20
2018-11-22T04:29:59.882Z,4.24
2018-11-22T04:30:59.867Z,4.22
2018-11-22T04:31:59.860Z,4.09
2018-11-22T04:33:00.418Z,4.09
2018-11-22T04:33:59.837Z,4.11
2018-11-22T04:34:59.831Z,4.14
2018-11-22T04:35:59.817Z,4.15
2018-11-22T04:36:59.805Z,4.08
2018-11-22T04:37:59.856Z,4.08
2018-11-22T04:38:59.783Z,4.15
2018-11-22T04:39:59.772Z,4.06
2018-11-22T04:40:59.760Z,4.06
2018-11-22T04:41:59.751Z,4.04
2018-11-22T04:42:59.811Z,4.04
2018-11-22T04:43:59.733Z,4.06
2018-11-22T04:44:59.721Z,4.09
2018-11-22T04:45:59.711Z,3.98
2018-11-22T04:46:59.697Z,4.00
2018-11-22T04:47:59.751Z,3.97
2018-11-22T04:48:59.676Z,3.97
2018-11-22T04:49:59.667Z,3.91
2018-11-22T04:50:59.655Z,3.97
2018-11-22T04:51:59.649Z,3.90
2018-11-22T04:52:59.705Z,3.94
2018-11-22T04:54:00.343Z,3.91
2018-11-22T04:54:59.617Z,3.83
2018-11-22T04:55:59.604Z,3.94
2018-11-22T04:56:59.593Z,3.80
2018-11-22T04:57:59.648Z,3.84
2018-11-22T04:58:59.572Z,3.83
2018-11-22T04:59:59.560Z,3.84
2018-11-22T05:00:59.554Z,3.87
2018-11-22T05:02:00.460Z,3.79
2018-11-22T05:02:59.602Z,3.79
2018-11-22T05:03:59.522Z,3.75
2018-11-22T05:04:59.509Z,3.84
2018-11-22T05:05:59.499Z,3.86
2018-11-22T05:06:59.486Z,3.75
2018-11-22T05:07:59.476Z,3.78
2018-11-22T05:08:59.528Z,3.80
2018-11-22T05:09:59.461Z,3.84
2018-11-22T05:10:59.451Z,3.87
2018-11-22T05:11:59.435Z,3.75
2018-11-22T05:12:59.425Z,3.72
2018-11-22T05:13:59.477Z,3.72
2018-11-22T05:15:00.343Z,3.73
2018-11-22T05:15:59.389Z,3.76
2018-11-22T05:16:59.382Z,3.68
2018-11-22T05:18:00.340Z,3.70
2018-11-22T05:18:59.430Z,3.76
2018-11-22T05:19:59.351Z,3.83
2018-11-22T05:20:59.340Z,3.72
2018-11-22T05:21:59.330Z,3.66
2018-11-22T05:22:59.329Z,3.76
2018-11-22T05:23:59.403Z,3.75
2018-11-22T05:24:59.300Z,3.73
2018-11-22T05:25:59.285Z,3.69
2018-11-22T05:26:59.280Z,3.72
2018-11-22T05:27:59.265Z,3.73
2018-11-22T05:28:59.313Z,3.70
2018-11-22T05:29:59.244Z,3.73
2018-11-22T05:30:59.234Z,3.66
2018-11-22T05:31:59.223Z,3.73
2018-11-22T05:32:59.214Z,3.75
2018-11-22T05:33:59.266Z,3.76
2018-11-22T05:34:59.193Z,3.55
2018-11-22T05:35:59.847Z,3.61
2018-11-22T05:36:59.178Z,3.69
2018-11-22T05:37:59.160Z,3.66
2018-11-22T05:38:59.213Z,3.61
2018-11-22T05:39:59.144Z,3.75
2018-11-22T05:40:59.160Z,3.69
2018-11-22T05:41:59.158Z,3.62
2018-11-22T05:42:59.108Z,3.62
2018-11-22T05:43:59.164Z,3.69
2018-11-22T05:44:59.084Z,3.65
2018-11-22T05:45:59.080Z,3.61
2018-11-22T05:47:02.629Z,3.65
2018-11-22T05:47:59.061Z,3.50
2018-11-22T05:48:59.105Z,3.68
2018-11-22T05:49:59.040Z,3.50
2018-11-22T05:50:59.028Z,3.65
2018-11-22T05:51:59.008Z,3.69
2018-11-22T05:52:58.999Z,3.60
2018-11-22T05:53:59.057Z,3.60
2018-11-22T05:54:58.984Z,3.58
2018-11-22T05:55:58.970Z,3.51
2018-11-22T05:56:59.851Z,3.51
2018-11-22T05:57:58.946Z,3.58
2018-11-22T05:58:59.000Z,3.65
2018-11-22T05:59:58.930Z,3.61
2018-11-22T06:00:58.916Z,3.69
2018-11-22T06:01:58.907Z,3.60
2018-11-22T06:02:58.898Z,3.65
2018-11-22T06:03:58.946Z,3.57
2018-11-22T06:04:58.879Z,3.58
2018-11-22T06:05:58.862Z,3.60
2018-11-22T06:06:58.854Z,3.61
2018-11-22T06:07:58.841Z,3.62
2018-11-22T06:08:58.909Z,3.52
2018-11-22T06:09:58.823Z,3.62
2018-11-22T06:10:58.818Z,3.60
2018-11-22T06:11:58.800Z,3.50
2018-11-22T06:12:58.788Z,3.57
2018-11-22T06:13:58.848Z,3.55
2018-11-22T06:14:58.765Z,3.51
2018-11-22T06:15:58.755Z,3.55
2018-11-22T06:16:58.747Z,3.55
2018-11-22T06:17:59.336Z,3.55
2018-11-22T06:18:58.819Z,3.48
2018-11-22T06:19:58.721Z,3.61
2018-11-22T06:20:58.709Z,3.51
2018-11-22T06:21:58.692Z,3.60
2018-11-22T06:22:58.683Z,3.55
2018-11-22T06:25:08.612Z,3.52
2018-11-22T06:26:08.507Z,3.52
2018-11-22T06:27:08.491Z,3.57
2018-11-22T06:28:08.485Z,3.51
2018-11-22T06:29:08.532Z,3.52
2018-11-22T06:30:08.461Z,3.65
2018-11-22T06:31:08.449Z,3.65
2018-11-22T06:32:08.440Z,3.55
2018-11-22T06:33:08.429Z,3.60
2018-11-22T06:34:08.475Z,3.51
2018-11-22T06:35:08.404Z,3.60
2018-11-22T06:36:08.396Z,3.55
2018-11-22T06:37:08.384Z,3.51
2018-11-22T06:38:08.375Z,3.50
2018-11-22T06:39:08.424Z,3.54
2018-11-22T06:40:08.354Z,3.62
2018-11-22T06:41:08.342Z,3.65
2018-11-22T06:42:08.334Z,3.57
2018-11-22T06:43:08.321Z,3.52
2018-11-22T06:44:08.371Z,3.51
2018-11-22T06:45:08.298Z,3.57
2018-11-22T06:46:09.147Z,3.52
2018-11-22T06:47:08.281Z,3.51
2018-11-22T06:48:08.267Z,3.58
2018-11-22T06:49:08.325Z,3.55
2018-11-22T06:50:08.247Z,3.61
2018-11-22T06:51:08.235Z,3.61
2018-11-22T06:52:08.223Z,3.66
2018-11-22T06:53:08.225Z,3.50
2018-11-22T06:54:08.279Z,3.61
2018-11-22T06:55:08.191Z,3.50
2018-11-22T06:56:08.184Z,3.61
2018-11-22T06:57:08.172Z,3.54
2018-11-22T06:58:08.161Z,3.58
2018-11-22T06:59:08.152Z,3.50
2018-11-22T07:00:08.206Z,3.51
2018-11-22T07:01:08.128Z,3.62
2018-11-22T07:02:08.116Z,3.57
2018-11-22T07:03:08.110Z,3.55
2018-11-22T07:04:08.098Z,3.52
2018-11-22T07:05:08.144Z,3.61
2018-11-22T07:06:08.079Z,3.61
2018-11-22T07:07:08.617Z,3.60
2018-11-22T07:08:08.054Z,3.66
2018-11-22T07:09:08.042Z,3.60
2018-11-22T07:10:08.094Z,3.68
2018-11-22T07:11:08.023Z,3.60
2018-11-22T07:12:08.012Z,3.60
2018-11-22T07:13:08.003Z,3.62
2018-11-22T07:14:07.990Z,3.69
2018-11-22T07:15:08.048Z,3.68
2018-11-22T07:16:07.974Z,3.70
2018-11-22T07:17:07.961Z,3.65
2018-11-22T07:18:07.953Z,3.62
2018-11-22T07:19:07.937Z,3.72
2018-11-22T07:20:07.989Z,3.68
2018-11-22T07:21:07.916Z,3.69
2018-11-22T07:22:07.904Z,3.72
2018-11-22T07:23:07.892Z,3.73
2018-11-22T07:24:07.884Z,3.75
2018-11-22T07:25:07.933Z,3.75
2018-11-22T07:26:07.862Z,3.70
2018-11-22T07:27:07.854Z,3.72
2018-11-22T07:28:08.605Z,3.83
2018-11-22T07:29:07.829Z,3.80
2018-11-22T07:30:07.881Z,3.79
2018-11-22T07:31:07.814Z,3.76
2018-11-22T07:32:07.797Z,3.72
2018-11-22T07:33:07.787Z,3.78
2018-11-22T07:34:07.777Z,3.83
2018-11-22T07:35:07.826Z,3.79
2018-11-22T07:36:07.756Z,3.86
2018-11-22T07:37:07.746Z,3.83
2018-11-22T07:38:07.740Z,3.80
2018-11-22T07:39:07.723Z,3.75
2018-11-22T07:40:07.775Z,3.76
2018-11-22T07:41:07.704Z,3.80
2018-11-22T07:42:07.699Z,3.76
2018-11-22T07:43:07.686Z,3.80
2018-11-22T07:44:07.672Z,3.69
2018-11-22T07:45:07.723Z,3.76
2018-11-22T07:46:07.651Z,3.69
2018-11-22T07:47:07.648Z,3.70
2018-11-22T07:48:07.639Z,3.79
2018-11-22T07:49:08.604Z,3.76
2018-11-22T07:50:07.670Z,3.76
2018-11-22T07:51:07.601Z,3.78
2018-11-22T07:52:07.593Z,3.73
2018-11-22T07:53:07.581Z,3.69
2018-11-22T07:54:07.567Z,3.69
2018-11-22T07:55:07.616Z,3.78
2018-11-22T07:56:07.546Z,3.70
2018-11-22T07:57:07.538Z,3.78
2018-11-22T07:58:07.528Z,3.69
2018-11-22T07:59:07.514Z,3.72
2018-11-22T08:00:07.563Z,3.78
2018-11-22T08:01:07.490Z,3.79
2018-11-22T08:02:07.478Z,3.84
2018-11-22T08:03:07.470Z,3.72
2018-11-22T08:04:07.460Z,3.86
2018-11-22T08:05:07.511Z,3.79
2018-11-22T08:06:07.439Z,3.94
2018-11-22T08:07:07.427Z,3.97
2018-11-22T08:08:07.415Z,4.00
2018-11-22T08:09:07.407Z,4.11
2018-11-22T08:10:07.668Z,4.08
2018-11-22T08:11:07.407Z,4.08
2018-11-22T08:12:12.177Z,4.12
2018-11-22T08:13:07.365Z,4.12
2018-11-22T08:14:07.354Z,4.26
2018-11-22T08:15:07.405Z,4.34
2018-11-22T08:16:07.332Z,4.30
2018-11-22T08:17:07.323Z,4.36
2018-11-22T08:18:07.314Z,4.42
2018-11-22T08:19:08.102Z,4.41
2018-11-22T08:20:07.351Z,4.52
2018-11-22T08:21:07.278Z,4.50
2018-11-22T08:22:07.267Z,4.62
2018-11-22T08:23:07.258Z,4.65
2018-11-22T08:24:07.248Z,4.66
2018-11-22T08:25:07.311Z,4.66
2018-11-22T08:26:07.235Z,4.70
2018-11-22T08:27:07.216Z,4.77
2018-11-22T08:28:07.205Z,4.75
2018-11-22T08:29:07.194Z,4.86
2018-11-22T08:30:07.187Z,4.75
2018-11-22T08:31:07.663Z,4.86
2018-11-22T08:32:07.172Z,4.99
2018-11-22T08:33:07.156Z,5.06
2018-11-22T08:34:07.147Z,5.10
2018-11-22T08:35:07.135Z,5.21
2018-11-22T08:36:07.181Z,5.42
2018-11-22T08:37:07.111Z,5.81
2018-11-22T08:38:07.100Z,6.06
2018-11-22T08:39:07.093Z,6.25
2018-11-22T08:40:07.079Z,6.30
2018-11-22T08:41:07.124Z,6.34
2018-11-22T08:42:07.058Z,6.48
2018-11-22T08:43:07.046Z,6.55
2018-11-22T08:44:07.034Z,6.61
2018-11-22T08:45:07.021Z,6.59
2018-11-22T08:46:07.077Z,6.70
2018-11-22T08:47:11.968Z,6.62
2018-11-22T08:48:06.992Z,6.62
2018-11-22T08:49:06.983Z,6.71
2018-11-22T08:50:06.974Z,6.71
2018-11-22T08:51:07.020Z,6.76
2018-11-22T08:52:07.590Z,6.67
2018-11-22T08:53:06.938Z,6.77
2018-11-22T08:54:06.930Z,6.95
2018-11-22T08:55:06.918Z,7.06
2018-11-22T08:56:06.969Z,6.97
2018-11-22T08:57:06.897Z,6.95
2018-11-22T08:58:06.886Z,7.07
2018-11-22T08:59:06.877Z,6.99
2018-11-22T09:00:06.864Z,7.05
2018-11-22T09:01:06.916Z,7.05
2018-11-22T09:02:06.840Z,7.39
2018-11-22T09:03:06.828Z,7.72
2018-11-22T09:04:06.822Z,7.93
2018-11-22T09:05:06.810Z,8.10
2018-11-22T09:06:06.859Z,8.02
2018-11-22T09:07:06.786Z,7.93
2018-11-22T09:08:06.777Z,7.58
2018-11-22T09:09:06.766Z,7.37
2018-11-22T09:10:06.756Z,7.20
2018-11-22T09:11:06.806Z,6.97
2018-11-22T09:12:06.736Z,6.74
2018-11-22T09:13:07.588Z,6.81
2018-11-22T09:14:06.712Z,6.81
2018-11-22T09:15:06.705Z,6.91
2018-11-22T09:16:06.752Z,6.87
2018-11-22T09:17:06.679Z,7.07
2018-11-22T09:18:06.667Z,7.61
2018-11-22T09:19:06.659Z,8.04
2018-11-22T09:20:06.649Z,8.08
2018-11-22T09:21:06.704Z,8.62
2018-11-22T09:22:06.625Z,9.14
2018-11-22T09:23:06.621Z,9.43
2018-11-22T09:24:06.605Z,9.43
2018-11-22T09:25:06.603Z,9.81
2018-11-22T09:26:06.644Z,9.90
2018-11-22T09:27:06.575Z,9.91
2018-11-22T09:28:06.562Z,10.22
2018-11-22T09:29:06.551Z,10.74
2018-11-22T09:30:06.539Z,10.82
2018-11-22T09:31:06.589Z,10.84
2018-11-22T09:32:06.532Z,10.86
2018-11-22T09:33:06.507Z,10.56
2018-11-22T09:34:07.116Z,10.30
2018-11-22T09:35:06.485Z,10.30
2018-11-22T09:36:06.534Z,10.08
2018-11-22T09:37:06.460Z,9.40
2018-11-22T09:38:06.452Z,8.86
2018-11-22T09:39:06.439Z,8.89
2018-11-22T09:40:06.434Z,9.10
2018-11-22T09:41:06.477Z,9.56
2018-11-22T09:42:06.419Z,9.87
2018-11-22T09:43:06.400Z,9.84
2018-11-22T09:44:06.386Z,9.97
2018-11-22T09:45:06.374Z,10.15
2018-11-22T09:46:06.434Z,9.68
2018-11-22T09:47:06.357Z,9.29
2018-11-22T09:48:06.347Z,8.99
2018-11-22T09:49:06.336Z,8.80
2018-11-22T09:50:06.324Z,8.29
2018-11-22T09:51:06.313Z,7.98
2018-11-22T09:52:06.370Z,8.02
2018-11-22T09:53:06.292Z,7.92
2018-11-22T09:54:06.282Z,7.93
2018-11-22T09:55:07.081Z,7.83
2018-11-22T09:56:06.259Z,7.64
2018-11-22T09:57:06.316Z,7.40
2018-11-22T09:58:06.238Z,7.40
2018-11-22T09:59:06.229Z,7.42
2018-11-22T10:00:06.212Z,7.48
2018-11-22T10:01:06.210Z,7.40
2018-11-22T10:02:06.259Z,7.43
2018-11-22T10:03:06.204Z,7.27
2018-11-22T10:04:06.174Z,7.37
2018-11-22T10:05:06.302Z,7.37
2018-11-22T10:06:06.154Z,7.43
2018-11-22T10:07:06.210Z,7.45
2018-11-22T10:08:06.136Z,7.40
2018-11-22T10:09:06.124Z,7.40
2018-11-22T10:10:06.110Z,7.42
2018-11-22T10:11:06.100Z,7.74
2018-11-22T10:12:06.149Z,7.83
2018-11-22T10:13:06.079Z,7.75
2018-11-22T10:14:06.065Z,7.82
2018-11-22T10:15:06.056Z,7.90
2018-11-22T10:16:06.580Z,8.18
2018-11-22T10:17:06.162Z,8.30
2018-11-22T10:18:06.021Z,8.37
2018-11-22T10:19:06.011Z,8.68
2018-11-22T10:20:06.579Z,9.58
2018-11-22T10:21:05.989Z,9.20
2018-11-22T10:22:06.070Z,8.86
2018-11-22T10:23:05.969Z,8.56
2018-11-22T10:24:06.014Z,8.37
2018-11-22T10:25:05.945Z,8.45
2018-11-22T10:26:05.934Z,8.41
2018-11-22T10:27:05.986Z,8.41
2018-11-22T10:28:05.919Z,8.79
2018-11-22T10:29:05.904Z,8.44
2018-11-22T10:30:05.917Z,8.50
2018-11-22T10:31:05.880Z,8.16
2018-11-22T10:32:05.932Z,7.97
2018-11-22T10:33:05.864Z,8.01
2018-11-22T10:34:05.848Z,8.01
2018-11-22T10:35:05.889Z,7.97
2018-11-22T10:36:05.827Z,8.15
2018-11-22T10:37:06.149Z,8.10
2018-11-22T10:38:05.816Z,8.07
2018-11-22T10:39:05.815Z,8.04
2018-11-22T10:40:05.788Z,8.25
2018-11-22T10:41:05.773Z,8.41
2018-11-22T10:42:05.825Z,8.20
2018-11-22T10:44:05.743Z,7.77
2018-11-22T10:45:05.731Z,7.69
2018-11-22T10:46:05.721Z,7.52
2018-11-22T10:47:05.778Z,7.40
2018-11-22T10:48:05.716Z,7.39
2018-11-22T10:49:05.691Z,7.31
2018-11-22T10:50:05.679Z,7.35
2018-11-22T10:51:05.668Z,7.43
2018-11-22T10:52:05.727Z,7.45
2018-11-22T10:53:05.646Z,7.48
2018-11-22T10:54:05.637Z,7.25
2018-11-22T10:55:05.626Z,7.31
2018-11-22T10:56:05.613Z,7.20
2018-11-22T10:57:05.665Z,7.42
2018-11-22T10:58:06.578Z,7.42
2018-11-22T10:59:05.583Z,7.49
2018-11-22T11:00:05.572Z,7.43
2018-11-22T11:01:05.560Z,7.58
2018-11-22T11:02:05.620Z,7.53
2018-11-22T11:03:05.541Z,7.60
2018-11-22T11:04:05.525Z,7.68
2018-11-22T11:05:05.518Z,7.64
2018-11-22T11:06:05.507Z,7.71
2018-11-22T11:07:05.564Z,7.69
2018-11-22T11:08:05.486Z,7.87
2018-11-22T11:09:05.474Z,7.82
2018-11-22T11:10:05.462Z,7.86
2018-11-22T11:11:05.452Z,7.86
2018-11-22T11:12:05.442Z,8.01
2018-11-22T11:13:05.491Z,8.19
2018-11-22T11:14:05.428Z,8.33
2018-11-22T11:15:05.417Z,8.33
2018-11-22T11:16:05.400Z,8.43
2018-11-22T11:17:05.396Z,8.37
2018-11-22T11:18:05.442Z,8.34
2018-11-22T11:19:06.517Z,8.26
2018-11-22T11:20:05.410Z,8.20
2018-11-22T11:22:05.356Z,8.34
2018-11-22T11:23:05.392Z,8.43
2018-11-22T11:24:05.319Z,8.38
2018-11-22T11:25:05.495Z,8.43
2018-11-22T11:26:05.491Z,8.50
2018-11-22T11:27:05.282Z,8.58
2018-11-22T11:28:05.370Z,8.68
2018-11-22T11:29:06.245Z,8.52
2018-11-22T11:30:05.248Z,8.59
2018-11-22T11:31:05.244Z,8.71
2018-11-22T11:32:05.238Z,8.80
2018-11-22T11:33:05.301Z,8.89
2018-11-22T11:34:05.240Z,9.02
2018-11-22T11:35:05.197Z,9.28
2018-11-22T11:36:05.182Z,9.43
2018-11-22T11:37:05.173Z,9.39
2018-11-22T11:38:05.239Z,9.20
2018-11-22T11:39:05.153Z,9.10
2018-11-22T11:40:06.073Z,9.05
2018-11-22T11:41:05.134Z,8.70
2018-11-22T11:42:05.120Z,8.50
2018-11-22T11:43:05.172Z,8.66
2018-11-22T11:44:05.099Z,8.59
2018-11-22T11:45:05.090Z,8.61
2018-11-22T11:46:05.078Z,8.96
2018-11-22T11:47:05.066Z,9.15
2018-11-22T11:48:05.118Z,9.28
2018-11-22T11:49:05.046Z,9.33
2018-11-22T11:50:05.037Z,9.32
2018-11-22T11:51:05.022Z,9.42
2018-11-22T11:52:05.012Z,9.39
2018-11-22T11:53:05.062Z,9.66
2018-11-22T11:54:04.991Z,9.99
2018-11-22T11:55:04.982Z,9.90
2018-11-22T11:56:04.969Z,9.72
2018-11-22T11:57:05.007Z,9.56
2018-11-22T11:58:05.032Z,9.42
2018-11-22T11:59:04.936Z,9.29
2018-11-22T12:00:04.943Z,9.14
2018-11-22T12:01:05.572Z,9.02
2018-11-22T12:02:04.906Z,9.04
2018-11-22T12:03:04.963Z,9.05
2018-11-22T12:04:04.882Z,9.10
2018-11-22T12:05:04.895Z,8.91
2018-11-22T12:06:04.867Z,9.02
2018-11-22T12:07:04.858Z,9.02
2018-11-22T12:08:04.954Z,8.94
2018-11-22T12:09:04.835Z,8.91
2018-11-22T12:10:04.834Z,9.05
2018-11-22T12:11:04.810Z,9.05
2018-11-22T12:12:04.802Z,8.98
2018-11-22T12:13:04.851Z,8.84
2018-11-22T12:14:04.779Z,8.84
2018-11-22T12:15:04.766Z,8.66
2018-11-22T12:16:04.755Z,8.70
2018-11-22T12:17:04.756Z,8.66
2018-11-22T12:18:04.798Z,8.53
2018-11-22T12:19:04.725Z,8.74
2018-11-22T12:20:04.731Z,8.68
2018-11-22T12:21:04.706Z,8.52
2018-11-22T12:22:05.571Z,8.68
2018-11-22T12:23:04.748Z,8.76
2018-11-22T12:24:04.668Z,8.91
2018-11-22T12:25:04.656Z,8.95
2018-11-22T12:26:04.647Z,9.01
2018-11-22T12:27:04.635Z,9.24
2018-11-22T12:28:04.703Z,9.46
2018-11-22T12:29:04.620Z,9.64
2018-11-22T12:30:04.640Z,9.81
2018-11-22T12:31:06.589Z,10.04
2018-11-22T12:32:04.591Z,9.97
2018-11-22T12:33:04.644Z,10.04
2018-11-22T12:34:04.563Z,10.17
2018-11-22T12:35:04.563Z,10.27
2018-11-22T12:36:04.540Z,10.33
2018-11-22T12:37:04.529Z,10.42
2018-11-22T12:38:04.646Z,10.45
2018-11-22T12:39:04.510Z,10.51
2018-11-22T12:40:04.504Z,10.56
2018-11-22T12:41:04.490Z,10.56
2018-11-22T12:42:04.475Z,10.53
2018-11-22T12:43:05.070Z,10.51
2018-11-22T12:44:04.517Z,10.55
2018-11-22T12:45:04.440Z,10.20
2018-11-22T12:46:04.430Z,10.12
2018-11-22T12:47:04.424Z,10.23
2018-11-22T12:48:04.440Z,10.44
2018-11-22T12:49:04.460Z,10.08
2018-11-22T12:50:04.391Z,10.29
2018-11-22T12:51:04.378Z,10.22
2018-11-22T12:52:04.365Z,10.30
2018-11-22T12:53:04.359Z,10.29
2018-11-22T12:54:04.424Z,10.51
2018-11-22T12:55:04.336Z,10.61
2018-11-22T12:56:04.323Z,10.68
2018-11-22T12:57:04.353Z,10.67
2018-11-22T12:58:04.302Z,10.73
2018-11-22T12:59:04.351Z,10.73
2018-11-22T13:00:04.297Z,10.78
2018-11-22T13:01:05.070Z,10.60
2018-11-22T13:02:04.270Z,10.40
2018-11-22T13:03:04.254Z,10.40
2018-11-22T13:04:04.642Z,10.42
2018-11-22T13:05:04.223Z,10.44
2018-11-22T13:06:04.213Z,10.53
2018-11-22T13:07:04.215Z,10.52
2018-11-22T13:08:04.193Z,10.44
2018-11-22T13:09:04.268Z,10.41
2018-11-22T13:10:04.175Z,10.26
2018-11-22T13:11:04.163Z,10.15
2018-11-22T13:12:04.148Z,10.09
2018-11-22T13:13:04.138Z,10.23
2018-11-22T13:14:04.206Z,10.17
2018-11-22T13:15:04.122Z,10.14
2018-11-22T13:16:04.164Z,10.18
2018-11-22T13:17:04.097Z,10.17
2018-11-22T13:18:04.091Z,10.22
2018-11-22T13:19:04.140Z,10.08